Time;durP1;ratioP1;P1;durP2;ratioP2;P2;SDS_P1;SDS_P2;PMS_P1;PMS_P2;Temp;Humidity;BMP_temperature;BMP_pressure;BME280_temperature;BME280_humidity;BME280_pressure;Samples;Min_cycle;Max_cycle;Signal;HPM_P1;HPM_P2
2022/05/30 00:01:50;;;;;;;4.07;1.00;;;;;;;;;;5113211;28;20114;-79
2022/05/30 00:04:15;;;;;;;2.40;0.90;;;;;;;;;;5113106;28;20122;-79
2022/05/30 00:06:40;;;;;;;3.60;0.75;;;;;;;;;;5113105;28;20073;-78
2022/05/30 00:09:07;;;;;;;2.15;1.00;;;;;;;;;;5094673;28;20394;-79
2022/05/30 00:11:33;;;;;;;3.88;1.10;;;;;;;;;;5113092;28;20374;-79
2022/05/30 00:13:58;;;;;;;3.25;1.00;;;;;;;;;;5077883;28;20024;-79
2022/05/30 00:16:24;;;;;;;1.58;0.82;;;;;;;;;;5078124;28;20031;-79
2022/05/30 00:18:50;;;;;;;1.42;0.90;;;;;;;;;;5094742;28;20534;-79
2022/05/30 00:21:23;;;;;;;1.67;1.10;;;;;;;;;;5094858;28;20028;-79
2022/05/30 00:23:49;;;;;;;2.63;0.93;;;;;;;;;;5094754;28;20031;-79
2022/05/30 00:26:15;;;;;;;1.42;1.00;;;;;;;;;;5077429;28;20478;-78
2022/05/30 00:28:41;;;;;;;2.72;0.98;;;;;;;;;;5094297;28;20031;-79
2022/05/30 00:31:11;;;;;;;2.97;0.93;;;;;;;;;;5094317;28;20030;-79
2022/05/30 00:33:38;;;;;;;5.13;1.05;;;;;;;;;;5094277;28;20111;-79
2022/05/30 00:36:03;;;;;;;4.97;0.98;;;;;;;;;;5094210;28;20031;-79
2022/05/30 00:38:29;;;;;;;1.25;0.70;;;;;;;;;;5094507;28;20032;-79
2022/05/30 00:40:54;;;;;;;1.38;0.90;;;;;;;;;;5077229;28;20031;-79
2022/05/30 00:43:25;;;;;;;1.15;0.75;;;;;;;;;;5094271;28;20034;-80
2022/05/30 00:45:51;;;;;;;1.25;0.90;;;;;;;;;;5094393;28;20019;-79
2022/05/30 00:48:17;;;;;;;3.20;1.10;;;;;;;;;;5077809;28;20163;-79
2022/05/30 01:06:42;;;;;;;1.30;0.80;;;;;;;;;;5068608;28;20566;-84
2022/05/30 01:08:36;;;;;;;1.65;0.80;;;;;;;;;;5047140;28;20037;-85
2022/05/30 01:11:01;;;;;;;1.52;0.82;;;;;;;;;;5069162;28;20036;-85
2022/05/30 01:13:27;;;;;;;2.20;1.17;;;;;;;;;;5069340;28;20088;-86
2022/05/30 01:15:54;;;;;;;1.35;0.80;;;;;;;;;;5067974;28;20021;-86
2022/05/30 01:18:25;;;;;;;1.77;0.95;;;;;;;;;;5069495;28;20095;-88
2022/05/30 01:21:17;;;;;;;3.17;1.10;;;;;;;;;;5068202;28;20027;-88
2022/05/30 01:24:21;;;;;;;1.63;0.90;;;;;;;;;;5069995;28;20051;-88
2022/05/30 01:26:56;;;;;;;1.88;1.02;;;;;;;;;;5053187;28;20118;-87
2022/05/30 01:29:38;;;;;;;1.35;0.93;;;;;;;;;;5051173;28;20035;-87
2022/05/30 01:32:04;;;;;;;1.00;0.80;;;;;;;;;;5067701;28;20032;-87
2022/05/30 01:34:29;;;;;;;1.92;0.90;;;;;;;;;;5051068;28;20399;-87
2022/05/30 01:36:55;;;;;;;1.50;0.90;;;;;;;;;;5067768;28;20033;-86
2022/05/30 01:39:20;;;;;;;1.05;0.85;;;;;;;;;;5067790;28;20024;-86
2022/05/30 01:41:46;;;;;;;1.45;1.00;;;;;;;;;;5067515;28;20032;-86
2022/05/30 01:44:13;;;;;;;1.77;0.93;;;;;;;;;;5050678;28;20037;-85
2022/05/30 01:46:38;;;;;;;2.10;1.20;;;;;;;;;;5067431;28;20108;-86
2022/05/30 01:49:04;;;;;;;3.78;1.17;;;;;;;;;;5051525;28;20147;-86
2022/05/30 01:51:29;;;;;;;4.07;1.00;;;;;;;;;;5050825;28;20051;-86
2022/05/30 01:53:55;;;;;;;1.25;0.82;;;;;;;;;;5067326;28;20032;-86
2022/05/30 01:56:20;;;;;;;4.85;1.10;;;;;;;;;;5068482;28;20039;-86
2022/05/30 01:58:46;;;;;;;2.05;0.95;;;;;;;;;;5066841;28;20039;-86
2022/05/30 02:01:16;;;;;;;2.00;1.00;;;;;;;;;;5068457;28;20377;-86
2022/05/30 02:03:43;;;;;;;0.90;0.88;;;;;;;;;;5038024;28;20060;-86
2022/05/30 02:06:08;;;;;;;2.03;1.00;;;;;;;;;;5055029;28;20029;-86
2022/05/30 02:08:34;;;;;;;2.38;1.10;;;;;;;;;;5055159;28;20040;-87
2022/05/30 02:10:59;;;;;;;1.33;0.80;;;;;;;;;;5036945;28;20469;-86
2022/05/30 02:13:24;;;;;;;2.05;1.00;;;;;;;;;;5055561;28;20495;-85
2022/05/30 02:18:34;;;;;;;2.28;0.90;;;;;;;;;;5054441;28;20044;-88
2022/05/30 02:20:59;;;;;;;2.25;1.00;;;;;;;;;;5055472;28;20492;-87
2022/05/30 02:23:25;;;;;;;3.08;1.00;;;;;;;;;;5054884;28;20071;-87
2022/05/30 02:25:50;;;;;;;2.30;1.10;;;;;;;;;;5054598;28;20029;-87
2022/05/30 02:28:15;;;;;;;2.30;1.17;;;;;;;;;;5053923;28;20036;-88
2022/05/30 02:30:41;;;;;;;1.30;0.95;;;;;;;;;;5037384;28;20336;-88
2022/05/30 02:38:34;;;;;;;2.05;1.00;;;;;;;;;;5039728;28;20040;-87
2022/05/30 02:40:59;;;;;;;1.88;0.98;;;;;;;;;;5053765;28;20029;-87
2022/05/30 02:43:25;;;;;;;2.13;0.80;;;;;;;;;;5055111;28;20163;-86
2022/05/30 02:45:50;;;;;;;2.35;1.00;;;;;;;;;;5053172;28;20063;-86
2022/05/30 02:48:15;;;;;;;0.82;0.82;;;;;;;;;;5053062;28;20033;-85
2022/05/30 02:50:41;;;;;;;2.53;1.17;;;;;;;;;;5052566;28;20029;-85
2022/05/30 02:53:06;;;;;;;2.08;1.05;;;;;;;;;;5053494;28;20086;-86
2022/05/30 02:55:32;;;;;;;2.28;1.02;;;;;;;;;;5052828;28;20027;-84
2022/05/30 02:57:57;;;;;;;0.82;0.80;;;;;;;;;;5036087;28;20033;-84
2022/05/30 03:00:26;;;;;;;1.77;0.90;;;;;;;;;;5054420;28;20151;-85
2022/05/30 03:02:52;;;;;;;2.33;1.02;;;;;;;;;;5052710;28;20041;-85
2022/05/30 03:05:17;;;;;;;1.35;0.95;;;;;;;;;;5053229;28;20310;-85
2022/05/30 03:07:43;;;;;;;1.75;1.15;;;;;;;;;;5052847;28;20041;-85
2022/05/30 03:10:08;;;;;;;2.20;0.88;;;;;;;;;;5052575;28;20511;-85
2022/05/30 03:12:34;;;;;;;1.90;0.90;;;;;;;;;;5054010;28;20037;-85
2022/05/30 03:14:59;;;;;;;1.92;1.02;;;;;;;;;;5052712;28;20035;-85
2022/05/30 03:17:24;;;;;;;1.83;1.00;;;;;;;;;;5052506;28;20059;-85
2022/05/30 03:19:51;;;;;;;1.10;0.80;;;;;;;;;;5053737;28;20035;-85
2022/05/30 03:22:16;;;;;;;1.83;0.95;;;;;;;;;;5052071;28;20082;-85
2022/05/30 03:24:42;;;;;;;1.35;0.80;;;;;;;;;;5035539;28;20431;-86
2022/05/30 03:27:07;;;;;;;1.00;0.88;;;;;;;;;;5054240;28;20125;-87
2022/05/30 03:29:33;;;;;;;1.23;0.82;;;;;;;;;;5052217;28;20048;-87
2022/05/30 03:31:58;;;;;;;1.75;0.90;;;;;;;;;;5052136;28;20029;-87
2022/05/30 03:34:23;;;;;;;2.35;0.90;;;;;;;;;;5052052;28;20084;-87
2022/05/30 03:36:49;;;;;;;2.47;1.35;;;;;;;;;;5054038;28;20348;-86
2022/05/30 03:39:14;;;;;;;0.70;0.70;;;;;;;;;;5036184;28;20464;-87
2022/05/30 03:41:40;;;;;;;1.08;0.80;;;;;;;;;;5052325;28;20333;-87
2022/05/30 03:44:05;;;;;;;1.48;0.88;;;;;;;;;;5051847;28;20123;-87
2022/05/30 03:46:31;;;;;;;1.10;0.90;;;;;;;;;;5053021;28;20033;-85
2022/05/30 03:48:57;;;;;;;3.10;1.02;;;;;;;;;;5035232;28;20021;-86
2022/05/30 03:51:22;;;;;;;1.02;0.90;;;;;;;;;;5035106;28;20035;-86
2022/05/30 03:53:50;;;;;;;1.40;1.00;;;;;;;;;;5051509;28;20116;-86
2022/05/30 03:56:16;;;;;;;1.45;1.00;;;;;;;;;;5053539;28;20071;-86
2022/05/30 03:58:41;;;;;;;0.82;0.80;;;;;;;;;;5018535;28;20061;-86
2022/05/30 04:01:08;;;;;;;1.85;1.13;;;;;;;;;;5054772;28;20057;-86
2022/05/30 04:03:33;;;;;;;3.15;0.98;;;;;;;;;;5052092;28;20556;-86
2022/05/30 04:05:59;;;;;;;2.28;1.02;;;;;;;;;;5053078;28;20112;-87
2022/05/30 04:08:24;;;;;;;1.05;0.90;;;;;;;;;;5053066;28;20099;-88
2022/05/30 04:10:49;;;;;;;4.15;0.98;;;;;;;;;;5052726;28;20063;-88
2022/05/30 04:13:15;;;;;;;2.75;0.98;;;;;;;;;;5051505;28;20025;-87
2022/05/30 04:15:40;;;;;;;1.10;1.00;;;;;;;;;;5052460;28;20490;-87
2022/05/30 04:18:06;;;;;;;2.97;1.27;;;;;;;;;;5052728;28;20032;-86
2022/05/30 04:20:32;;;;;;;2.70;1.30;;;;;;;;;;5051611;28;20059;-84
2022/05/30 04:22:57;;;;;;;2.97;1.23;;;;;;;;;;5051173;28;20495;-84
2022/05/30 04:25:23;;;;;;;1.30;1.00;;;;;;;;;;5051003;28;20024;-84
2022/05/30 04:27:48;;;;;;;4.00;1.30;;;;;;;;;;5051250;28;20033;-86
2022/05/30 04:30:14;;;;;;;4.45;1.38;;;;;;;;;;5052380;28;20033;-82
2022/05/30 04:32:39;;;;;;;3.28;1.50;;;;;;;;;;5052368;28;20072;-83
2022/05/30 04:35:06;;;;;;;5.95;1.98;;;;;;;;;;5035761;28;20100;-85
2022/05/30 04:37:32;;;;;;;3.55;1.77;;;;;;;;;;5052880;28;20439;-85
2022/05/30 04:39:58;;;;;;;5.55;2.40;;;;;;;;;;5035457;28;20056;-86
2022/05/30 04:42:23;;;;;;;7.18;2.08;;;;;;;;;;5052614;28;20525;-85
2022/05/30 04:44:48;;;;;;;8.07;1.80;;;;;;;;;;5052106;28;20028;-85
2022/05/30 04:47:14;;;;;;;8.13;1.73;;;;;;;;;;5052140;28;20047;-84
2022/05/30 04:49:39;;;;;;;5.60;2.00;;;;;;;;;;5053219;28;20060;-83
2022/05/30 04:52:06;;;;;;;6.30;2.00;;;;;;;;;;5053467;28;20029;-85
2022/05/30 04:54:31;;;;;;;4.10;1.73;;;;;;;;;;5052063;28;20043;-89
2022/05/30 04:56:56;;;;;;;7.90;2.15;;;;;;;;;;5053358;28;20033;-86
2022/05/30 04:59:22;;;;;;;7.88;2.83;;;;;;;;;;5052803;28;20410;-86
2022/05/30 05:01:47;;;;;;;10.55;2.80;;;;;;;;;;5052107;28;20067;-87
2022/05/30 05:04:13;;;;;;;14.05;3.38;;;;;;;;;;5053240;28;20495;-87
2022/05/30 05:06:39;;;;;;;11.90;3.10;;;;;;;;;;5051943;28;20029;-87
2022/05/30 05:09:29;;;;;;;13.82;3.17;;;;;;;;;;5051891;28;20052;-86
2022/05/30 05:11:54;;;;;;;10.93;3.22;;;;;;;;;;5052049;28;20460;-86
2022/05/30 05:14:19;;;;;;;8.38;2.72;;;;;;;;;;5053647;28;20041;-86
2022/05/30 05:16:45;;;;;;;9.52;2.92;;;;;;;;;;5055829;28;20044;-87
2022/05/30 05:19:11;;;;;;;10.32;2.85;;;;;;;;;;5055645;28;20522;-85
2022/05/30 05:21:38;;;;;;;9.15;2.20;;;;;;;;;;5056214;28;20361;-86
2022/05/30 05:24:06;;;;;;;8.60;2.90;;;;;;;;;;5054433;28;20078;-86
2022/05/30 05:26:31;;;;;;;8.25;2.40;;;;;;;;;;5055403;28;20060;-85
2022/05/30 05:28:57;;;;;;;9.02;2.28;;;;;;;;;;5022161;28;20033;-84
2022/05/30 05:31:34;;;;;;;6.25;2.83;;;;;;;;;;5020736;28;20033;-86
2022/05/30 05:34:01;;;;;;;7.28;2.40;;;;;;;;;;5055215;28;20087;-87
2022/05/30 05:36:29;;;;;;;4.25;1.90;;;;;;;;;;5054560;28;20091;-86
2022/05/30 05:38:55;;;;;;;4.38;1.83;;;;;;;;;;5059572;28;20078;-83
2022/05/30 05:41:23;;;;;;;5.80;1.90;;;;;;;;;;5059470;28;20036;-85
2022/05/30 05:43:49;;;;;;;5.95;1.83;;;;;;;;;;5058533;28;20025;-85
2022/05/30 05:46:18;;;;;;;8.07;2.10;;;;;;;;;;5058318;28;20036;-86
2022/05/30 05:48:43;;;;;;;4.15;1.70;;;;;;;;;;5058967;28;20032;-88
2022/05/30 05:51:09;;;;;;;5.35;1.90;;;;;;;;;;5058101;28;20024;-87
2022/05/30 05:53:34;;;;;;;3.60;1.58;;;;;;;;;;5057738;28;20055;-87
2022/05/30 05:56:16;;;;;;;3.33;1.60;;;;;;;;;;5058410;28;20472;-86
2022/05/30 05:58:42;;;;;;;4.03;1.77;;;;;;;;;;5041444;28;20021;-86
2022/05/30 06:01:09;;;;;;;4.25;1.60;;;;;;;;;;5057148;28;20045;-86
2022/05/30 06:03:35;;;;;;;4.95;1.58;;;;;;;;;;5057323;28;20021;-88
2022/05/30 06:06:00;;;;;;;4.63;1.27;;;;;;;;;;5055121;28;20473;-87
2022/05/30 06:08:25;;;;;;;6.35;1.60;;;;;;;;;;5038440;28;20033;-85
2022/05/30 06:11:08;;;;;;;4.45;1.70;;;;;;;;;;5056048;28;20048;-85
2022/05/30 06:13:34;;;;;;;3.78;1.20;;;;;;;;;;5055185;28;20435;-87
2022/05/30 06:16:00;;;;;;;4.60;1.73;;;;;;;;;;5055889;28;20383;-86
2022/05/30 06:18:25;;;;;;;5.28;1.35;;;;;;;;;;5056182;28;20029;-87
2022/05/30 06:20:57;;;;;;;5.60;1.65;;;;;;;;;;5037982;28;20392;-83
2022/05/30 06:23:22;;;;;;;8.65;1.30;;;;;;;;;;5039665;28;20478;-91
2022/05/30 06:25:47;;;;;;;3.63;1.42;;;;;;;;;;5061263;28;20025;-90
2022/05/30 06:28:13;;;;;;;4.63;1.55;;;;;;;;;;5070907;28;20110;-87
2022/05/30 06:30:38;;;;;;;4.65;1.60;;;;;;;;;;5060433;28;20036;-85
2022/05/30 06:33:03;;;;;;;4.28;1.48;;;;;;;;;;5059799;28;20029;-84
2022/05/30 06:35:29;;;;;;;2.80;1.27;;;;;;;;;;5059180;28;20068;-85
2022/05/30 06:37:54;;;;;;;4.82;1.40;;;;;;;;;;5054696;28;20029;-85
2022/05/30 06:40:20;;;;;;;4.45;1.77;;;;;;;;;;5056266;28;20108;-85
2022/05/30 06:42:45;;;;;;;2.35;1.30;;;;;;;;;;5054198;28;20040;-85
2022/05/30 06:45:10;;;;;;;6.32;2.00;;;;;;;;;;5021583;28;20025;-85
2022/05/30 06:47:36;;;;;;;2.20;1.05;;;;;;;;;;5037645;28;20147;-85
2022/05/30 06:50:01;;;;;;;3.92;1.00;;;;;;;;;;5055571;28;20143;-85
2022/05/30 06:52:27;;;;;;;3.85;1.10;;;;;;;;;;5054095;28;20052;-85
2022/05/30 06:54:52;;;;;;;3.50;1.27;;;;;;;;;;5055264;28;20103;-85
2022/05/30 07:00:02;;;;;;;;;;;;;;;;;;5054683;28;20043;-86
2022/05/30 07:02:27;;;;;;;1.38;0.70;;;;;;;;;;5036927;28;19920;-85
2022/05/30 07:04:53;;;;;;;1.85;0.90;;;;;;;;;;5054083;28;20404;-85
2022/05/30 07:07:18;;;;;;;3.15;1.00;;;;;;;;;;5054943;28;20087;-85
2022/05/30 07:09:43;;;;;;;6.40;0.98;;;;;;;;;;5054860;28;20033;-85
2022/05/30 07:12:09;;;;;;;3.20;0.90;;;;;;;;;;5055193;28;20051;-85
2022/05/30 07:14:36;;;;;;;2.55;1.00;;;;;;;;;;5053677;28;20511;-85
2022/05/30 07:17:01;;;;;;;2.30;0.90;;;;;;;;;;5036977;28;20040;-85
2022/05/30 07:19:26;;;;;;;1.77;1.42;;;;;;;;;;5037267;28;20033;-85
2022/05/30 07:21:52;;;;;;;1.52;1.17;;;;;;;;;;5036706;28;20033;-84
2022/05/30 07:24:17;;;;;;;1.48;0.98;;;;;;;;;;5037142;28;20055;-85
2022/05/30 07:26:42;;;;;;;2.45;1.15;;;;;;;;;;5054935;28;20029;-85
2022/05/30 07:29:08;;;;;;;1.83;0.90;;;;;;;;;;5055141;28;20487;-85
2022/05/30 07:31:34;;;;;;;1.52;0.93;;;;;;;;;;5053450;28;20150;-85
2022/05/30 07:33:59;;;;;;;2.40;0.70;;;;;;;;;;5036645;28;20047;-86
2022/05/30 07:36:27;;;;;;;1.98;0.93;;;;;;;;;;5054641;28;20021;-86
2022/05/30 07:38:53;;;;;;;1.10;0.82;;;;;;;;;;5036546;28;20111;-84
2022/05/30 07:41:19;;;;;;;2.15;0.90;;;;;;;;;;5053361;28;20032;-86
2022/05/30 07:43:45;;;;;;;1.50;0.75;;;;;;;;;;5053470;28;20546;-84
2022/05/30 07:46:12;;;;;;;1.30;0.70;;;;;;;;;;5053230;28;20025;-86
2022/05/30 07:48:38;;;;;;;2.22;0.68;;;;;;;;;;5053389;28;20120;-87
2022/05/30 07:51:04;;;;;;;3.33;0.95;;;;;;;;;;5052900;28;20064;-86
2022/05/30 07:53:30;;;;;;;1.98;0.88;;;;;;;;;;5052916;28;20036;-86
2022/05/30 07:55:57;;;;;;;0.77;0.75;;;;;;;;;;5052826;28;20029;-86
2022/05/30 07:58:22;;;;;;;1.73;0.73;;;;;;;;;;5053950;28;20090;-84
2022/05/30 08:00:49;;;;;;;1.27;0.70;;;;;;;;;;5053463;28;20461;-84
2022/05/30 08:03:16;;;;;;;1.55;0.80;;;;;;;;;;5052548;28;20049;-84
2022/05/30 08:05:43;;;;;;;1.25;0.75;;;;;;;;;;5052606;28;20033;-85
2022/05/30 08:08:09;;;;;;;0.98;0.60;;;;;;;;;;5052568;28;20396;-84
2022/05/30 08:10:34;;;;;;;1.27;0.70;;;;;;;;;;5035970;28;20037;-86
2022/05/30 08:13:00;;;;;;;0.60;0.60;;;;;;;;;;5053996;28;20029;-84
2022/05/30 08:15:26;;;;;;;1.65;0.82;;;;;;;;;;5054025;28;20033;-85
2022/05/30 08:17:55;;;;;;;2.95;0.52;;;;;;;;;;5052486;28;20492;-85
2022/05/30 08:20:21;;;;;;;1.27;0.80;;;;;;;;;;5052504;28;20059;-85
2022/05/30 08:22:46;;;;;;;1.85;0.82;;;;;;;;;;5052945;28;20021;-83
2022/05/30 08:25:14;;;;;;;0.50;0.40;;;;;;;;;;5054298;28;20476;-85
2022/05/30 08:27:43;;;;;;;2.53;0.70;;;;;;;;;;5060380;28;20487;-85
2022/05/30 08:30:11;;;;;;;6.82;1.08;;;;;;;;;;5038871;28;20037;-88
2022/05/30 08:32:40;;;;;;;3.38;0.80;;;;;;;;;;5069096;28;20044;-87
2022/05/30 08:35:07;;;;;;;2.47;0.63;;;;;;;;;;5062071;28;20387;-88
2022/05/30 08:37:37;;;;;;;7.18;0.90;;;;;;;;;;5053643;28;20112;-91
2022/05/30 08:42:55;;;;;;;4.38;1.50;;;;;;;;;;5053893;28;20132;-91
2022/05/30 08:45:22;;;;;;;3.28;1.58;;;;;;;;;;5016539;28;20559;-91
2022/05/30 08:47:58;;;;;;;4.88;1.48;;;;;;;;;;5052229;28;20498;-90
2022/05/30 08:50:39;;;;;;;3.42;1.25;;;;;;;;;;5052398;28;20494;-90
2022/05/30 08:53:31;;;;;;;4.30;1.38;;;;;;;;;;5052402;28;20412;-89
2022/05/30 08:56:01;;;;;;;4.25;1.42;;;;;;;;;;5053180;28;20025;-87
2022/05/30 08:58:36;;;;;;;3.00;1.48;;;;;;;;;;5051888;28;20444;-87
2022/05/30 09:01:05;;;;;;;6.82;1.60;;;;;;;;;;5051528;28;20400;-92
2022/05/30 09:03:36;;;;;;;4.50;1.23;;;;;;;;;;5052162;28;20168;-93
2022/05/30 09:06:09;;;;;;;2.55;1.02;;;;;;;;;;5052885;28;20115;-89
2022/05/30 09:08:42;;;;;;;3.35;1.13;;;;;;;;;;5052353;28;20020;-90
2022/05/30 09:11:26;;;;;;;4.20;1.20;;;;;;;;;;5036136;28;20036;-89
2022/05/30 09:13:52;;;;;;;3.38;1.20;;;;;;;;;;5058644;28;20031;-88
2022/05/30 09:16:20;;;;;;;7.15;1.15;;;;;;;;;;5058977;28;20040;-94
2022/05/30 09:18:48;;;;;;;5.53;1.48;;;;;;;;;;5042207;28;20025;-90
2022/05/30 09:21:14;;;;;;;1.70;0.82;;;;;;;;;;5042481;28;20017;-88
2022/05/30 09:23:40;;;;;;;3.05;1.05;;;;;;;;;;5041108;28;20459;-95
2022/05/30 09:26:08;;;;;;;2.63;1.00;;;;;;;;;;5040877;28;20021;-91
2022/05/30 09:28:36;;;;;;;1.58;0.80;;;;;;;;;;5040712;28;20454;-90
2022/05/30 09:31:21;;;;;;;3.83;1.02;;;;;;;;;;5057119;28;20029;-87
2022/05/30 09:33:53;;;;;;;3.65;1.00;;;;;;;;;;5055860;28;20112;-87
2022/05/30 09:36:19;;;;;;;1.23;0.68;;;;;;;;;;5039071;28;20027;-87
2022/05/30 09:38:59;;;;;;;4.32;1.00;;;;;;;;;;5055551;28;20063;-89
2022/05/30 09:41:30;;;;;;;2.15;0.80;;;;;;;;;;5039011;28;20028;-91
2022/05/30 09:43:59;;;;;;;3.15;0.88;;;;;;;;;;5039187;28;20039;-90
2022/05/30 09:46:51;;;;;;;2.15;0.88;;;;;;;;;;5055385;28;20438;-85
2022/05/30 09:49:38;;;;;;;3.05;0.98;;;;;;;;;;5056428;28;20500;-90
2022/05/30 09:52:33;;;;;;;1.55;0.80;;;;;;;;;;5038705;28;20029;-90
2022/05/30 09:54:59;;;;;;;2.83;0.85;;;;;;;;;;5062069;28;20040;-89
2022/05/30 09:57:42;;;;;;;3.60;0.90;;;;;;;;;;5038804;28;20052;-91
2022/05/30 10:00:19;;;;;;;1.85;0.80;;;;;;;;;;5055455;28;20027;-92
2022/05/30 10:02:45;;;;;;;2.03;1.00;;;;;;;;;;5055563;28;20049;-90
2022/05/30 10:05:13;;;;;;;13.13;1.48;;;;;;;;;;5023146;28;20121;-91
2022/05/30 10:07:53;;;;;;;1.52;0.77;;;;;;;;;;5055348;28;20060;-88
2022/05/30 10:10:20;;;;;;;2.33;0.60;;;;;;;;;;5055696;28;20465;-92
2022/05/30 10:13:09;;;;;;;2.45;0.93;;;;;;;;;;5055978;28;20052;-87
2022/05/30 10:15:38;;;;;;;3.55;1.30;;;;;;;;;;5056832;28;20032;-94
2022/05/30 10:18:26;;;;;;;5.68;1.20;;;;;;;;;;5076151;28;20036;-89
2022/05/30 10:21:06;;;;;;;2.55;1.20;;;;;;;;;;5072392;28;20481;-90
2022/05/30 10:30:44;;;;;;;2.20;1.08;;;;;;;;;;5055860;28;20072;-88
2022/05/30 10:33:39;;;;;;;4.28;0.95;;;;;;;;;;5064522;28;20078;-89
2022/05/30 10:36:17;;;;;;;5.53;1.67;;;;;;;;;;5072532;28;20404;-89
2022/05/30 10:38:51;;;;;;;2.22;1.00;;;;;;;;;;5064755;28;20026;-92
2022/05/30 10:41:20;;;;;;;2.58;1.17;;;;;;;;;;5059013;28;20029;-91
2022/05/30 10:43:58;;;;;;;4.80;1.20;;;;;;;;;;5057737;28;20025;-87
2022/05/30 10:46:43;;;;;;;4.63;1.20;;;;;;;;;;5056224;28;20099;-87
2022/05/30 10:49:13;;;;;;;5.05;1.63;;;;;;;;;;5056589;28;20044;-87
2022/05/30 10:51:50;;;;;;;2.00;1.00;;;;;;;;;;5039833;28;20095;-86
2022/05/30 10:54:43;;;;;;;5.50;1.20;;;;;;;;;;5057326;28;20415;-87
2022/05/30 10:57:24;;;;;;;2.60;1.27;;;;;;;;;;5052435;28;20072;-88
2022/05/30 10:59:55;;;;;;;4.47;1.23;;;;;;;;;;5040486;28;20025;-89
2022/05/30 11:02:31;;;;;;;3.50;1.13;;;;;;;;;;5037480;28;20056;-89
2022/05/30 11:05:07;;;;;;;1.67;0.80;;;;;;;;;;5053967;28;20028;-89
2022/05/30 11:07:37;;;;;;;4.28;1.05;;;;;;;;;;5054459;28;20116;-88
2022/05/30 11:10:37;;;;;;;9.85;1.35;;;;;;;;;;5053970;28;20029;-90
2022/05/30 11:13:17;;;;;;;2.85;1.10;;;;;;;;;;5037675;28;20036;-88
2022/05/30 11:15:53;;;;;;;2.03;0.90;;;;;;;;;;5053975;28;20032;-86
2022/05/30 11:18:35;;;;;;;1.70;1.00;;;;;;;;;;5053842;28;20044;-89
2022/05/30 11:21:01;;;;;;;3.53;1.05;;;;;;;;;;5054820;28;20017;-88
2022/05/30 11:23:26;;;;;;;2.63;1.02;;;;;;;;;;5055208;28;20071;-89
2022/05/30 11:26:39;;;;;;;5.20;1.40;;;;;;;;;;5053826;28;20044;-87
2022/05/30 11:29:25;;;;;;;3.22;1.10;;;;;;;;;;5051349;28;20105;-89
2022/05/30 11:32:04;;;;;;;2.50;1.00;;;;;;;;;;5056293;28;20033;-93
2022/05/30 11:34:50;;;;;;;3.40;1.10;;;;;;;;;;5037838;28;20032;-91
2022/05/30 11:37:32;;;;;;;1.00;0.88;;;;;;;;;;5054304;28;20112;-92
2022/05/30 11:40:28;;;;;;;1.00;0.90;;;;;;;;;;5037624;28;20021;-92
2022/05/30 11:43:12;;;;;;;2.72;0.80;;;;;;;;;;5054951;28;20040;-91
2022/05/30 11:46:02;;;;;;;3.42;1.35;;;;;;;;;;5054995;28;20052;-92
2022/05/30 11:49:06;;;;;;;3.30;0.70;;;;;;;;;;5038759;28;20123;-92
2022/05/30 11:51:40;;;;;;;0.77;0.77;;;;;;;;;;5056216;28;20021;-91
2022/05/30 11:54:27;;;;;;;2.25;1.00;;;;;;;;;;5058268;28;20021;-89
2022/05/30 11:57:11;;;;;;;2.17;1.00;;;;;;;;;;5054619;28;20031;-90
2022/05/30 11:59:58;;;;;;;2.63;1.08;;;;;;;;;;5054453;28;20048;-88
2022/05/30 12:02:45;;;;;;;0.63;0.63;;;;;;;;;;5055506;28;20049;-89
2022/05/30 12:05:29;;;;;;;2.58;0.90;;;;;;;;;;5054760;28;20086;-93
2022/05/30 12:07:57;;;;;;;0.68;0.65;;;;;;;;;;5054376;28;20095;-93
2022/05/30 12:10:42;;;;;;;1.30;0.77;;;;;;;;;;5037797;28;20082;-92
2022/05/30 12:13:26;;;;;;;1.15;0.73;;;;;;;;;;5052344;28;20044;-95
2022/05/30 12:15:55;;;;;;;0.75;0.75;;;;;;;;;;5072304;28;20455;-95
2022/05/30 12:24:11;;;;;;;2.88;0.90;;;;;;;;;;5055619;28;20092;-95
2022/05/30 12:26:47;;;;;;;1.60;0.77;;;;;;;;;;5055223;28;20048;-95
2022/05/30 12:29:37;;;;;;;1.42;0.80;;;;;;;;;;5054655;28;20024;-95
2022/05/30 12:32:21;;;;;;;2.35;0.90;;;;;;;;;;5054997;28;20368;-91
2022/05/30 12:35:26;;;;;;;1.45;0.80;;;;;;;;;;5054697;28;20060;-93
2022/05/30 12:37:58;;;;;;;;;;;;;;;;;;5044802;28;20024;-89
2022/05/30 12:40:26;;;;;;;0.63;0.63;;;;;;;;;;5062426;28;19931;-89
2022/05/30 12:43:15;;;;;;;1.25;0.77;;;;;;;;;;5070843;28;20033;-91
2022/05/30 12:46:10;;;;;;;0.65;0.60;;;;;;;;;;5053290;28;20021;-91
2022/05/30 12:48:55;;;;;;;1.98;0.50;;;;;;;;;;5053254;28;20025;-90
2022/05/30 12:51:29;;;;;;;1.10;1.00;;;;;;;;;;5057727;28;20024;-90
2022/05/30 12:53:54;;;;;;;0.57;0.57;;;;;;;;;;5036484;28;20028;-92
2022/05/30 12:56:38;;;;;;;1.17;0.90;;;;;;;;;;5056251;28;20029;-91
2022/05/30 12:59:03;;;;;;;1.02;0.93;;;;;;;;;;5054825;28;20384;-93
2022/05/30 13:01:44;;;;;;;0.75;0.60;;;;;;;;;;5055015;28;20045;-94
2022/05/30 13:04:15;;;;;;;1.00;1.00;;;;;;;;;;5052883;28;20111;-91
2022/05/30 13:07:13;;;;;;;1.15;0.98;;;;;;;;;;5052765;28;20021;-94
2022/05/30 13:09:42;;;;;;;1.23;1.02;;;;;;;;;;5059686;28;20060;-94
2022/05/30 13:12:11;;;;;;;1.25;0.80;;;;;;;;;;5061784;28;20158;-94
2022/05/30 13:14:36;;;;;;;1.25;0.70;;;;;;;;;;5057411;28;20032;-95
2022/05/30 13:17:23;;;;;;;0.90;0.57;;;;;;;;;;5056221;28;20032;-93
2022/05/30 13:19:51;;;;;;;0.57;0.57;;;;;;;;;;5053527;28;20155;-95
2022/05/30 13:22:27;;;;;;;0.80;0.77;;;;;;;;;;5054225;28;20025;-94
2022/05/30 13:24:53;;;;;;;3.92;0.70;;;;;;;;;;5052876;28;20472;-93
2022/05/30 13:27:18;;;;;;;1.00;0.65;;;;;;;;;;5053104;28;20078;-93
2022/05/30 13:29:44;;;;;;;2.50;0.90;;;;;;;;;;5037436;28;20036;-93
2022/05/30 13:32:14;;;;;;;1.23;0.70;;;;;;;;;;5054545;28;20040;-94
2022/05/30 13:34:48;;;;;;;1.15;0.70;;;;;;;;;;5036399;28;20029;-93
2022/05/30 13:37:21;;;;;;;2.72;0.95;;;;;;;;;;5037016;28;20539;-95
2022/05/30 13:39:46;;;;;;;1.75;0.63;;;;;;;;;;5038366;28;20035;-96
2022/05/30 13:42:12;;;;;;;1.27;0.80;;;;;;;;;;5023203;28;20119;-94
2022/05/30 13:44:40;;;;;;;1.23;0.73;;;;;;;;;;5037131;28;20047;-96
2022/05/30 13:47:16;;;;;;;0.98;0.80;;;;;;;;;;5036714;28;20120;-93
2022/05/30 13:49:43;;;;;;;1.25;0.73;;;;;;;;;;5036590;28;20029;-93
2022/05/30 13:52:15;;;;;;;1.30;0.70;;;;;;;;;;5037837;28;20076;-94
2022/05/30 13:54:45;;;;;;;0.80;0.80;;;;;;;;;;5036880;28;20032;-92
2022/05/30 13:57:12;;;;;;;1.02;0.80;;;;;;;;;;5020137;28;20033;-91
2022/05/30 13:59:52;;;;;;;2.25;0.90;;;;;;;;;;5057328;28;20021;-96
2022/05/30 14:02:29;;;;;;;1.88;0.82;;;;;;;;;;5043097;28;20080;-94
2022/05/30 14:05:08;;;;;;;0.68;0.68;;;;;;;;;;5059143;28;20032;-94
2022/05/30 14:07:49;;;;;;;0.47;0.47;;;;;;;;;;5040113;28;20397;-93
2022/05/30 14:10:22;;;;;;;1.05;0.68;;;;;;;;;;5040609;28;20025;-94
2022/05/30 14:12:49;;;;;;;1.08;0.80;;;;;;;;;;5040370;28;20025;-91
2022/05/30 14:15:21;;;;;;;2.35;0.65;;;;;;;;;;5023475;28;20064;-92
2022/05/30 14:17:48;;;;;;;0.60;0.60;;;;;;;;;;5039957;28;20025;-92
2022/05/30 14:20:25;;;;;;;0.65;0.65;;;;;;;;;;5023364;28;20055;-93
2022/05/30 14:22:53;;;;;;;0.55;0.55;;;;;;;;;;5056968;28;20036;-93
2022/05/30 14:25:29;;;;;;;1.60;0.95;;;;;;;;;;5044363;28;20111;-91
2022/05/30 14:27:55;;;;;;;0.85;0.85;;;;;;;;;;5052024;28;20028;-91
2022/05/30 14:30:38;;;;;;;0.80;0.80;;;;;;;;;;5045079;28;20032;-89
2022/05/30 14:33:08;;;;;;;1.67;0.85;;;;;;;;;;5043534;28;20036;-93
2022/05/30 14:35:33;;;;;;;0.82;0.68;;;;;;;;;;5042033;28;20029;-92
2022/05/30 14:38:00;;;;;;;0.98;0.80;;;;;;;;;;5044156;28;20119;-90
2022/05/30 14:40:36;;;;;;;1.45;0.80;;;;;;;;;;5059846;28;20029;-91
2022/05/30 14:43:24;;;;;;;1.20;0.80;;;;;;;;;;5042601;28;20029;-94
2022/05/30 14:46:11;;;;;;;4.70;1.10;;;;;;;;;;5053765;28;20024;-92
2022/05/30 14:48:39;;;;;;;4.88;1.08;;;;;;;;;;5070403;28;20039;-92
2022/05/30 14:51:37;;;;;;;1.75;0.77;;;;;;;;;;5057975;28;20021;-90
2022/05/30 14:54:04;;;;;;;2.42;0.88;;;;;;;;;;5055122;28;20041;-91
2022/05/30 14:56:31;;;;;;;2.17;1.15;;;;;;;;;;5040890;28;20028;-87
2022/05/30 14:59:04;;;;;;;1.92;1.05;;;;;;;;;;5058481;28;20047;-89
2022/05/30 15:01:32;;;;;;;1.40;0.80;;;;;;;;;;5058403;28;20055;-90
2022/05/30 15:04:09;;;;;;;2.42;0.80;;;;;;;;;;5041287;28;20127;-86
2022/05/30 15:06:41;;;;;;;0.68;0.68;;;;;;;;;;5058071;28;20040;-85
2022/05/30 15:09:18;;;;;;;2.00;0.70;;;;;;;;;;5056701;28;20024;-86
2022/05/30 15:11:45;;;;;;;0.80;0.80;;;;;;;;;;5040580;28;20376;-86
2022/05/30 15:14:17;;;;;;;0.88;0.70;;;;;;;;;;5057354;28;20044;-86
2022/05/30 15:16:43;;;;;;;4.20;1.30;;;;;;;;;;5057814;28;20385;-85
2022/05/30 15:19:08;;;;;;;3.00;1.35;;;;;;;;;;5057430;28;20032;-85
2022/05/30 15:21:36;;;;;;;3.25;1.65;;;;;;;;;;5058058;28;20036;-86
2022/05/30 15:24:08;;;;;;;3.47;1.50;;;;;;;;;;5056995;28;20477;-86
2022/05/30 15:26:34;;;;;;;5.30;1.90;;;;;;;;;;5057158;28;20029;-84
2022/05/30 15:28:59;;;;;;;5.68;2.20;;;;;;;;;;5058762;28;20088;-85
2022/05/30 15:31:27;;;;;;;3.50;1.25;;;;;;;;;;5058821;28;20021;-84
2022/05/30 15:33:53;;;;;;;2.83;1.27;;;;;;;;;;5040453;28;20431;-87
2022/05/30 15:36:19;;;;;;;6.78;1.98;;;;;;;;;;5055906;28;20024;-92
2022/05/30 15:38:47;;;;;;;5.70;2.20;;;;;;;;;;5055915;28;20033;-90
2022/05/30 15:41:13;;;;;;;5.40;2.08;;;;;;;;;;5053895;28;20021;-87
2022/05/30 15:43:38;;;;;;;9.52;2.30;;;;;;;;;;5039242;28;20033;-94
2022/05/30 15:46:04;;;;;;;3.88;1.90;;;;;;;;;;5025104;28;20037;-94